createdAt,value
2023-05-23T00:03:37.598Z,100887.19
2023-05-23T00:08:32.299Z,100886.91
2023-05-23T00:13:25.567Z,100886.09
2023-05-23T00:18:18.704Z,100887.06
2023-05-23T00:23:18.854Z,100878.13
2023-05-23T00:28:13.198Z,100889.84
2023-05-23T00:33:06.394Z,100893.06
2023-05-23T00:37:59.887Z,100876.88
2023-05-23T00:42:53.054Z,100897.59
2023-05-23T00:47:48.924Z,100907.81
2023-05-23T00:52:42.498Z,100879.63
2023-05-23T00:57:40.599Z,100861.28
2023-05-23T01:02:36.965Z,100892.44
2023-05-23T01:07:31.818Z,100890.59
2023-05-23T01:12:31.828Z,100872.81
2023-05-23T01:17:36.212Z,100893.50
2023-05-23T01:22:42.996Z,100896.41
2023-05-23T01:27:56.492Z,100893.75
2023-05-23T01:32:54.862Z,100817.50
2023-05-23T01:37:47.988Z,100871.28
2023-05-23T01:42:41.386Z,100811.63
2023-05-23T01:47:37.379Z,100903.69
2023-05-23T01:52:30.959Z,100890.16
2023-05-23T01:57:25.637Z,100887.66
2023-05-23T02:02:19.689Z,100902.53
2023-05-23T02:07:14.333Z,100898.72
2023-05-23T02:12:08.143Z,100908.72
2023-05-23T02:17:01.366Z,100860.75
2023-05-23T02:21:54.598Z,100915.63
2023-05-23T02:26:49.181Z,100912.44
2023-05-23T02:31:43.225Z,100903.97
2023-05-23T02:36:37.184Z,100882.03
2023-05-23T02:41:31.204Z,100907.16
2023-05-23T02:46:26.396Z,100893.72
2023-05-23T02:51:19.630Z,100907.75
2023-05-23T02:56:13.546Z,100918.16
2023-05-23T03:01:08.487Z,100905.38
2023-05-23T03:06:05.085Z,100920.59
2023-05-23T03:10:58.336Z,100896.53
2023-05-23T03:15:51.557Z,100872.75
2023-05-23T03:20:44.878Z,100928.44
2023-05-23T03:25:39.748Z,100922.03
2023-05-23T03:30:33.124Z,100932.09
2023-05-23T03:35:26.252Z,100941.25
2023-05-23T03:40:20.868Z,100947.94
2023-05-23T03:45:15.996Z,100950.81
2023-05-23T03:50:10.327Z,100935.09
2023-05-23T03:55:04.259Z,100942.47
2023-05-23T03:59:57.528Z,100953.53
2023-05-23T04:04:54.350Z,100954.38
2023-05-23T04:09:47.771Z,100971.56
2023-05-23T04:14:41.502Z,100968.59
2023-05-23T04:19:35.816Z,100977.91
2023-05-23T04:24:30.507Z,100973.84
2023-05-23T04:29:25.220Z,100977.50
2023-05-23T04:34:18.938Z,100985.38
2023-05-23T04:39:12.212Z,100976.56
2023-05-23T04:44:22.879Z,100982.00
2023-05-23T04:49:29.561Z,100994.59
2023-05-23T04:54:23.194Z,100985.66
2023-05-23T04:59:16.643Z,100997.66
2023-05-23T05:04:11.424Z,100986.69
2023-05-23T05:09:05.631Z,100976.22
2023-05-23T05:13:59.101Z,100982.09
2023-05-23T05:18:52.825Z,100959.13
2023-05-23T05:23:48.759Z,100975.03
2023-05-23T05:28:43.852Z,100790.56
2023-05-23T05:33:37.823Z,100966.34
2023-05-23T05:38:39.536Z,100965.22
2023-05-23T05:43:34.156Z,100970.25
2023-05-23T05:48:27.481Z,100984.63
2023-05-23T05:53:23.145Z,100980.25
2023-05-23T05:58:16.815Z,100962.00
2023-05-23T06:03:25.690Z,100971.16
2023-05-23T06:08:20.934Z,100958.47
2023-05-23T06:13:15.762Z,100986.41
2023-05-23T06:18:20.188Z,100977.50
2023-05-23T06:23:17.576Z,100973.97
2023-05-23T06:28:12.939Z,100992.38
2023-05-23T06:33:06.236Z,100901.72
2023-05-23T06:37:59.439Z,100973.41
2023-05-23T06:42:53.981Z,100985.22
2023-05-23T06:48:06.017Z,100965.00
2023-05-23T06:53:01.305Z,100967.28
2023-05-23T06:57:55.858Z,100962.78
2023-05-23T07:02:50.030Z,100873.72
2023-05-23T07:07:46.428Z,100956.53
2023-05-23T07:12:39.890Z,100950.59
2023-05-23T07:17:36.341Z,100962.75
2023-05-23T07:22:30.231Z,100945.22
2023-05-23T07:27:24.799Z,100954.56
2023-05-23T07:32:18.420Z,100954.59
2023-05-23T07:37:14.642Z,100941.34
2023-05-23T07:42:10.396Z,100944.31
2023-05-23T07:47:05.249Z,100949.91
2023-05-23T07:51:59.753Z,100952.34
2023-05-23T07:56:55.034Z,100909.28
2023-05-23T08:01:50.708Z,100946.09
2023-05-23T08:07:03.667Z,100938.34
2023-05-23T08:12:09.526Z,100925.16
2023-05-23T08:17:04.995Z,100927.25
2023-05-23T08:21:58.954Z,100921.56
2023-05-23T08:26:53.433Z,100928.44
2023-05-23T08:31:49.625Z,100911.44
2023-05-23T08:36:43.287Z,100904.03
2023-05-23T08:41:41.782Z,100901.75
2023-05-23T08:46:45.937Z,100891.84
2023-05-23T08:51:48.973Z,100897.78
2023-05-23T08:56:48.047Z,100899.81
2023-05-23T09:01:47.904Z,100888.69
2023-05-23T09:06:42.367Z,100885.56
2023-05-23T09:11:37.336Z,100886.38
2023-05-23T09:16:36.102Z,100881.31
2023-05-23T09:21:35.989Z,100861.06
2023-05-23T09:26:40.969Z,100875.09
2023-05-23T09:31:34.722Z,100865.44
2023-05-23T09:36:30.514Z,100858.00
2023-05-23T09:41:25.172Z,100858.22
2023-05-23T09:46:21.494Z,100862.75
2023-05-23T09:51:15.643Z,100836.22
2023-05-23T09:56:12.739Z,100870.25
2023-05-23T10:01:09.045Z,100854.66
2023-05-23T10:06:09.447Z,100817.88
2023-05-23T10:11:41.451Z,100850.09
2023-05-23T10:16:41.716Z,100842.63
2023-05-23T10:21:43.573Z,100836.16
2023-05-23T10:26:38.706Z,100844.44
2023-05-23T10:31:32.556Z,100839.56
2023-05-23T10:36:34.590Z,100747.56
2023-05-23T10:41:35.373Z,100822.56
2023-05-23T10:46:52.290Z,100823.78
2023-05-23T10:51:51.367Z,100821.00
2023-05-23T10:56:46.120Z,100809.63
2023-05-23T11:01:41.354Z,100805.50
2023-05-23T11:06:39.627Z,100814.31
2023-05-23T11:11:55.657Z,100811.75
2023-05-23T11:16:49.384Z,100792.31
2023-05-23T11:21:44.933Z,100798.44
2023-05-23T11:26:38.334Z,100808.72
2023-05-23T11:31:38.812Z,100806.13
2023-05-23T11:36:32.771Z,100801.03
2023-05-23T11:41:26.509Z,100789.03
2023-05-23T11:46:20.154Z,100784.41
2023-05-23T11:51:15.018Z,100778.78
2023-05-23T11:56:08.493Z,100779.75
2023-05-23T12:01:02.690Z,100766.72
2023-05-23T12:05:56.399Z,100692.03
2023-05-23T12:10:59.679Z,100766.25
2023-05-23T12:15:56.291Z,100762.28
2023-05-23T12:20:51.499Z,100732.19
2023-05-23T12:25:44.903Z,100734.00
2023-05-23T12:30:44.989Z,100707.16
2023-05-23T12:35:38.482Z,100725.00
2023-05-23T12:40:32.331Z,100690.59
2023-05-23T12:45:32.713Z,100732.84
2023-05-23T12:50:27.528Z,100718.22
2023-05-23T12:55:20.760Z,100691.94
2023-05-23T13:00:15.101Z,100708.75
2023-05-23T13:05:08.811Z,100711.63
2023-05-23T13:10:03.779Z,100662.00
2023-05-23T13:14:58.027Z,100715.50
2023-05-23T13:19:51.451Z,100708.63
2023-05-23T13:24:44.836Z,100718.84
2023-05-23T13:29:39.407Z,100715.03
2023-05-23T13:34:32.599Z,100715.34
2023-05-23T13:39:26.297Z,100630.84
2023-05-23T13:44:21.804Z,100711.44
2023-05-23T13:49:16.316Z,100683.03
2023-05-23T13:54:09.673Z,100715.00
2023-05-23T13:59:02.866Z,100710.91
2023-05-23T14:03:56.326Z,100681.72
2023-05-23T14:08:50.950Z,100663.97
2023-05-23T14:13:48.107Z,100703.88
2023-05-23T14:18:41.606Z,100713.94
2023-05-23T14:23:34.912Z,100705.16
2023-05-23T14:28:30.745Z,100701.38
2023-05-23T14:33:24.140Z,100707.88
2023-05-23T14:38:17.428Z,100707.03
2023-05-23T14:43:10.860Z,100692.97
2023-05-23T14:48:06.191Z,100695.84
2023-05-23T14:53:01.908Z,100690.69
2023-05-23T14:57:55.133Z,100688.84
2023-05-23T15:02:48.456Z,100611.19
2023-05-23T15:07:42.955Z,100680.81
2023-05-23T15:12:36.145Z,100683.06
2023-05-23T15:17:29.407Z,100679.72
2023-05-23T15:27:24.698Z,100681.34
2023-05-23T15:32:17.983Z,100624.63
2023-05-23T15:37:11.220Z,100686.06
2023-05-23T15:42:04.526Z,100673.19
2023-05-23T15:46:59.040Z,100673.81
2023-05-23T15:51:53.386Z,100675.53
2023-05-23T15:56:46.862Z,100681.91
2023-05-23T16:01:41.793Z,100584.19
2023-05-23T16:06:36.746Z,100694.44
2023-05-23T16:11:29.915Z,100701.22
2023-05-23T16:16:23.164Z,100711.06
2023-05-23T16:21:20.593Z,100693.81
2023-05-23T16:26:16.020Z,100715.34
2023-05-23T16:31:09.259Z,100715.88
2023-05-23T16:36:02.491Z,100718.50
2023-05-23T16:40:55.720Z,100719.03
2023-05-23T16:45:50.384Z,100724.47
2023-05-23T16:50:43.773Z,100727.06
2023-05-23T16:55:37.093Z,100720.63
2023-05-23T17:00:30.276Z,100718.22
2023-05-23T17:05:25.112Z,100687.63
2023-05-23T17:10:20.369Z,100718.97
2023-05-23T17:15:13.742Z,100719.66
2023-05-23T17:20:08.569Z,100726.78
2023-05-23T17:25:03.742Z,100730.13
2023-05-23T17:29:58.087Z,100725.50
2023-05-23T17:34:51.428Z,100710.13
2023-05-23T17:39:44.610Z,100734.44
2023-05-23T17:44:39.387Z,100739.41
2023-05-23T17:49:32.675Z,100745.22
2023-05-23T17:54:25.927Z,100745.69
2023-05-23T17:59:19.188Z,100749.81
2023-05-23T18:04:13.823Z,100758.56
2023-05-23T18:09:07.089Z,100768.63
2023-05-23T18:14:00.343Z,100777.13
2023-05-23T18:18:53.647Z,100725.81
2023-05-23T18:23:48.585Z,100789.19
2023-05-23T18:28:41.962Z,100804.19
2023-05-23T18:33:35.836Z,100811.22
2023-05-23T18:38:30.467Z,100810.47
2023-05-23T18:43:25.201Z,100811.53
2023-05-23T18:48:18.495Z,100829.81
2023-05-23T18:53:12.146Z,100838.44
2023-05-23T18:58:05.462Z,100685.88
2023-05-23T19:03:00.274Z,100849.97
2023-05-23T19:07:53.560Z,100835.16
2023-05-23T19:12:47.159Z,100852.72
2023-05-23T19:17:41.295Z,100849.75
2023-05-23T19:22:50.243Z,100831.44
2023-05-23T19:27:44.710Z,100837.56
2023-05-23T19:32:38.129Z,100868.50
2023-05-23T19:37:31.476Z,100848.19
2023-05-23T19:42:26.506Z,100853.97
2023-05-23T19:47:21.425Z,100872.16
2023-05-23T19:52:17.963Z,100728.22
2023-05-23T19:57:11.180Z,100880.94
2023-05-23T20:02:05.888Z,100869.72
2023-05-23T20:06:59.784Z,100880.19
2023-05-23T20:11:56.102Z,100694.03
2023-05-23T20:16:49.332Z,100868.84
2023-05-23T20:21:43.914Z,100880.59
2023-05-23T20:26:37.089Z,100891.38
2023-05-23T20:31:30.310Z,100891.16
2023-05-23T20:36:23.590Z,100887.16
2023-05-23T20:41:18.086Z,100784.56
2023-05-23T20:46:14.758Z,100889.69
2023-05-23T20:51:08.181Z,100899.16
2023-05-23T20:56:01.864Z,100878.59
2023-05-23T21:00:56.486Z,100887.59
2023-05-23T21:05:50.035Z,100892.69
2023-05-23T21:10:45.061Z,100754.41
2023-05-23T21:15:40.205Z,100898.03
2023-05-23T21:20:45.480Z,100777.50
2023-05-23T21:25:54.336Z,100907.94
2023-05-23T21:30:47.465Z,100913.16
2023-05-23T21:35:42.156Z,100913.19
2023-05-23T21:40:35.452Z,100926.03
2023-05-23T21:45:30.657Z,100934.25
2023-05-23T21:50:23.744Z,100927.22
2023-05-23T21:55:18.201Z,100935.59
2023-05-23T22:00:13.222Z,100935.06
2023-05-23T22:05:07.652Z,100914.34
2023-05-23T22:10:00.771Z,100913.69
2023-05-23T22:14:55.732Z,100907.81
2023-05-23T22:19:48.948Z,100915.59
2023-05-23T22:24:43.493Z,100892.78
2023-05-23T22:29:36.618Z,100909.16
2023-05-23T22:34:31.161Z,100894.03
2023-05-23T22:39:24.359Z,100894.75
2023-05-23T22:44:17.534Z,100879.09
2023-05-23T22:49:10.828Z,100886.25
2023-05-23T22:54:05.368Z,100889.72
2023-05-23T22:58:58.684Z,100866.16
2023-05-23T23:03:51.845Z,100855.31
2023-05-23T23:08:47.354Z,100869.31
2023-05-23T23:13:41.942Z,100872.72
2023-05-23T23:18:35.091Z,100877.84
2023-05-23T23:23:28.339Z,100880.41
2023-05-23T23:28:21.710Z,100851.06
2023-05-23T23:33:16.415Z,100870.31
2023-05-23T23:38:09.674Z,100873.75
2023-05-23T23:43:02.846Z,100871.31
2023-05-23T23:47:56.089Z,100856.91
2023-05-23T23:52:50.712Z,100858.19
2023-05-23T23:57:43.920Z,100857.34
